createdAt,value
2019-03-03T00:02:08.152Z,8.40
2019-03-03T00:04:38.552Z,8.30
2019-03-03T00:07:07.689Z,8.30
2019-03-03T00:09:37.497Z,8.30
2019-03-03T00:12:06.620Z,8.50
2019-03-03T00:14:36.307Z,8.50
2019-03-03T00:17:07.061Z,8.40
2019-03-03T00:19:37.206Z,8.20
2019-03-03T00:22:08.750Z,8.20
2019-03-03T00:24:41.260Z,8.20
2019-03-03T00:27:11.380Z,8.30
2019-03-03T00:29:41.321Z,8.20
2019-03-03T00:32:11.155Z,8.10
2019-03-03T00:34:40.343Z,8.00
2019-03-03T00:37:34.902Z,8.00
2019-03-03T00:40:22.709Z,8.30
2019-03-03T00:43:10.906Z,8.20
2019-03-03T00:46:03.550Z,8.20
2019-03-03T00:48:50.056Z,8.30
2019-03-03T00:51:38.728Z,8.20
2019-03-03T00:54:29.200Z,8.20
2019-03-03T00:57:16.478Z,8.30
2019-03-03T01:00:01.700Z,8.40
2019-03-03T01:02:41.640Z,8.40
2019-03-03T01:05:35.631Z,8.30
2019-03-03T01:08:36.122Z,8.40
2019-03-03T01:11:27.998Z,8.40
2019-03-03T01:14:31.944Z,8.60
2019-03-03T01:17:16.920Z,8.60
2019-03-03T01:20:05.411Z,8.50
2019-03-03T01:22:47.938Z,8.50
2019-03-03T01:25:17.177Z,8.40
2019-03-03T01:27:46.652Z,8.50
2019-03-03T01:30:16.133Z,8.50
2019-03-03T01:32:45.217Z,8.40
2019-03-03T01:35:14.789Z,8.30
2019-03-03T01:37:44.138Z,8.40
2019-03-03T01:40:14.155Z,8.50
2019-03-03T01:42:43.984Z,8.50
2019-03-03T01:45:13.899Z,8.50
2019-03-03T01:47:43.879Z,8.40
2019-03-03T01:50:13.517Z,8.50
2019-03-03T01:52:42.813Z,8.60
2019-03-03T01:55:12.279Z,8.50
2019-03-03T01:57:41.644Z,8.40
2019-03-03T02:00:21.003Z,8.40
2019-03-03T02:02:50.196Z,8.40
2019-03-03T02:05:19.426Z,8.40
2019-03-03T02:07:48.989Z,8.40
2019-03-03T02:10:22.005Z,8.30
2019-03-03T02:12:51.820Z,8.50
2019-03-03T02:15:21.618Z,8.50
2019-03-03T02:17:51.823Z,8.60
2019-03-03T02:20:21.139Z,8.70
2019-03-03T02:22:50.749Z,8.60
2019-03-03T02:25:20.062Z,8.50
2019-03-03T02:27:49.837Z,8.40
2019-03-03T02:30:19.726Z,8.50
2019-03-03T02:32:48.768Z,8.60
2019-03-03T02:35:18.891Z,8.50
2019-03-03T02:37:48.269Z,8.50
2019-03-03T02:40:18.850Z,8.40
2019-03-03T02:42:48.494Z,8.40
2019-03-03T02:45:18.204Z,8.50
2019-03-03T02:47:47.274Z,8.70
2019-03-03T02:50:16.376Z,8.60
2019-03-03T02:52:46.438Z,8.40
2019-03-03T02:55:15.958Z,8.50
2019-03-03T02:57:45.421Z,8.40
2019-03-03T03:00:19.683Z,8.30
2019-03-03T03:02:50.201Z,8.50
2019-03-03T03:05:30.278Z,8.50
2019-03-03T03:08:03.516Z,8.60
2019-03-03T03:10:39.777Z,8.60
2019-03-03T03:13:15.230Z,8.60
2019-03-03T03:15:51.431Z,8.60
2019-03-03T03:18:57.882Z,8.60
2019-03-03T03:21:49.180Z,8.40
2019-03-03T03:24:37.258Z,8.40
2019-03-03T03:27:25.717Z,8.40
2019-03-03T03:30:12.849Z,8.50
2019-03-03T03:33:01.574Z,8.60
2019-03-03T03:35:45.952Z,8.70
2019-03-03T03:38:30.130Z,8.50
2019-03-03T03:41:12.695Z,8.50
2019-03-03T03:44:19.601Z,8.60
2019-03-03T03:46:56.936Z,8.60
2019-03-03T03:49:40.459Z,8.60
2019-03-03T03:52:27.351Z,8.50
2019-03-03T03:55:14.425Z,8.50
2019-03-03T03:58:15.252Z,8.60
2019-03-03T04:01:03.375Z,8.60
2019-03-03T04:04:03.942Z,8.50
2019-03-03T04:06:40.579Z,8.50
2019-03-03T04:09:35.968Z,8.50
2019-03-03T04:12:24.442Z,8.50
2019-03-03T04:15:15.996Z,8.40
2019-03-03T04:18:10.544Z,8.30
2019-03-03T04:20:51.873Z,8.40
2019-03-03T04:23:40.258Z,8.30
2019-03-03T04:26:34.338Z,8.40
2019-03-03T04:29:10.503Z,8.50
2019-03-03T04:31:58.815Z,8.50
2019-03-03T04:34:45.214Z,8.40
2019-03-03T04:37:20.936Z,8.50
2019-03-03T04:40:04.856Z,8.40
2019-03-03T04:42:53.168Z,8.40
2019-03-03T04:45:48.157Z,8.50
2019-03-03T04:48:26.637Z,8.60
2019-03-03T04:51:07.812Z,8.40
2019-03-03T04:53:56.137Z,8.40
2019-03-03T04:56:47.812Z,8.50
2019-03-03T04:59:36.628Z,8.60
2019-03-03T05:02:16.642Z,8.60
2019-03-03T05:04:58.481Z,8.60
2019-03-03T05:07:56.111Z,8.50
2019-03-03T05:10:42.736Z,8.50
2019-03-03T05:13:37.305Z,8.50
2019-03-03T05:16:27.174Z,8.50
2019-03-03T05:19:03.108Z,8.50
2019-03-03T05:21:32.525Z,8.50
2019-03-03T05:24:02.140Z,8.40
2019-03-03T05:26:32.642Z,8.40
2019-03-03T05:29:02.745Z,8.40
2019-03-03T05:31:32.094Z,8.40
2019-03-03T05:34:01.335Z,8.50
2019-03-03T05:36:30.672Z,8.50
2019-03-03T05:39:00.014Z,8.50
2019-03-03T05:41:28.995Z,8.50
2019-03-03T05:43:59.711Z,8.40
2019-03-03T05:46:29.359Z,8.60
2019-03-03T05:48:58.296Z,8.60
2019-03-03T05:51:28.142Z,8.50
2019-03-03T05:53:57.245Z,8.50
2019-03-03T05:56:26.769Z,8.60
2019-03-03T05:58:56.206Z,8.50
2019-03-03T06:01:25.615Z,8.40
2019-03-03T06:03:56.006Z,8.40
2019-03-03T06:06:25.622Z,8.50
2019-03-03T06:08:56.068Z,8.50
2019-03-03T06:11:27.094Z,8.30
2019-03-03T06:13:56.685Z,8.40
2019-03-03T06:16:26.417Z,8.40
2019-03-03T06:18:55.787Z,8.50
2019-03-03T06:21:25.517Z,8.60
2019-03-03T06:23:55.401Z,8.70
2019-03-03T06:26:26.476Z,8.70
2019-03-03T06:28:56.693Z,8.70
2019-03-03T06:31:25.849Z,8.70
2019-03-03T06:33:54.832Z,8.70
2019-03-03T06:36:24.349Z,8.70
2019-03-03T06:38:54.219Z,8.60
2019-03-03T06:41:23.740Z,8.60
2019-03-03T06:43:53.037Z,8.60
2019-03-03T06:46:22.541Z,8.60
2019-03-03T06:48:52.099Z,8.50
2019-03-03T06:51:21.871Z,8.60
2019-03-03T06:53:51.441Z,8.60
2019-03-03T06:56:20.812Z,8.60
2019-03-03T06:58:49.880Z,8.70
2019-03-03T07:01:18.960Z,8.70
2019-03-03T07:03:49.158Z,8.70
2019-03-03T07:06:18.562Z,8.70
2019-03-03T07:08:47.528Z,8.80
2019-03-03T07:11:16.600Z,8.80
2019-03-03T07:13:48.211Z,8.90
2019-03-03T07:16:17.505Z,9.00
2019-03-03T07:18:46.449Z,9.00
2019-03-03T07:21:16.053Z,9.00
2019-03-03T07:23:45.045Z,9.10
2019-03-03T07:26:15.000Z,9.10
2019-03-03T07:28:44.957Z,9.30
2019-03-03T07:31:14.259Z,9.30
2019-03-03T07:33:48.999Z,9.40
2019-03-03T07:36:18.257Z,9.50
2019-03-03T07:38:47.726Z,9.60
2019-03-03T07:41:17.364Z,9.60
2019-03-03T07:43:46.716Z,9.60
2019-03-03T07:46:17.545Z,9.60
2019-03-03T07:48:47.251Z,9.60
2019-03-03T07:51:17.266Z,9.70
2019-03-03T07:53:48.069Z,9.60
2019-03-03T07:56:17.108Z,9.80
2019-03-03T07:58:46.486Z,9.80
2019-03-03T08:01:15.696Z,9.80
2019-03-03T08:03:46.534Z,10.00
2019-03-03T08:06:15.995Z,10.00
2019-03-03T08:08:46.862Z,10.00
2019-03-03T08:11:16.497Z,10.30
2019-03-03T08:13:47.328Z,10.50
2019-03-03T08:16:17.673Z,10.70
2019-03-03T08:18:47.193Z,11.00
2019-03-03T08:21:17.031Z,11.00
2019-03-03T08:23:46.258Z,11.10
2019-03-03T08:26:16.564Z,11.20
2019-03-03T08:28:46.245Z,11.70
2019-03-03T08:31:15.897Z,12.10
2019-03-03T08:33:45.794Z,12.40
2019-03-03T08:36:15.238Z,12.30
2019-03-03T08:38:44.907Z,12.40
2019-03-03T08:41:14.325Z,13.00
2019-03-03T08:44:02.096Z,13.30
2019-03-03T08:46:46.732Z,13.20
2019-03-03T08:49:26.309Z,12.80
2019-03-03T08:52:10.596Z,13.00
2019-03-03T08:55:06.094Z,12.90
2019-03-03T08:57:45.417Z,12.70
2019-03-03T09:00:30.616Z,12.30
2019-03-03T09:03:17.349Z,12.70
2019-03-03T09:06:04.838Z,13.70
2019-03-03T09:08:51.870Z,14.30
2019-03-03T09:11:49.283Z,15.00
2019-03-03T09:14:41.357Z,14.70
2019-03-03T09:17:29.693Z,15.00
2019-03-03T09:20:10.340Z,16.10
2019-03-03T09:22:48.746Z,16.60
2019-03-03T09:25:28.865Z,17.50
2019-03-03T09:28:23.114Z,18.60
2019-03-03T09:31:16.490Z,18.60
2019-03-03T09:34:00.979Z,17.40
2019-03-03T09:37:04.896Z,18.00
2019-03-03T09:39:53.179Z,19.00
2019-03-03T09:42:39.198Z,20.20
2019-03-03T09:45:27.010Z,20.00
2019-03-03T09:48:18.175Z,19.20
2019-03-03T09:51:09.575Z,19.30
2019-03-03T09:53:49.195Z,19.20
2019-03-03T09:56:37.884Z,19.90
2019-03-03T09:59:25.199Z,19.70
2019-03-03T10:02:06.816Z,19.00
2019-03-03T10:05:02.067Z,20.10
2019-03-03T10:07:45.207Z,20.00
2019-03-03T10:10:36.046Z,20.50
2019-03-03T10:13:24.841Z,21.90
2019-03-03T10:16:15.982Z,21.00
2019-03-03T10:19:10.318Z,21.60
2019-03-03T10:21:57.534Z,22.40
2019-03-03T10:25:00.969Z,23.00
2019-03-03T10:27:47.320Z,23.00
2019-03-03T10:30:35.302Z,22.30
2019-03-03T10:33:21.199Z,22.20
2019-03-03T10:36:01.579Z,21.90
2019-03-03T10:38:52.281Z,21.20
2019-03-03T10:41:43.987Z,19.90
2019-03-03T10:44:23.037Z,18.20
2019-03-03T10:47:05.187Z,17.40
2019-03-03T10:49:45.498Z,17.00
2019-03-03T10:52:43.877Z,16.20
2019-03-03T10:55:50.663Z,16.00
2019-03-03T10:58:28.186Z,15.70
2019-03-03T11:01:17.018Z,15.60
2019-03-03T11:04:04.698Z,15.30
2019-03-03T11:06:59.874Z,15.00
2019-03-03T11:09:45.534Z,14.60
2019-03-03T11:12:21.730Z,14.40
2019-03-03T11:15:18.475Z,14.50
2019-03-03T11:17:52.615Z,14.50
2019-03-03T11:21:02.253Z,14.30
2019-03-03T11:24:00.244Z,14.20
2019-03-03T11:26:40.217Z,14.70
2019-03-03T11:29:15.036Z,14.80
2019-03-03T11:32:03.083Z,14.40
2019-03-03T11:34:57.405Z,14.30
2019-03-03T11:37:45.678Z,14.30
2019-03-03T11:40:30.605Z,14.50
2019-03-03T11:43:06.870Z,14.50
2019-03-03T11:45:58.154Z,14.20
2019-03-03T11:48:49.581Z,14.30
2019-03-03T11:51:36.617Z,14.30
2019-03-03T11:54:24.834Z,14.40
2019-03-03T11:57:17.822Z,14.30
2019-03-03T12:00:09.990Z,14.10
2019-03-03T12:02:55.408Z,14.20
2019-03-03T12:05:38.634Z,14.10
2019-03-03T12:08:19.541Z,14.10
2019-03-03T12:11:06.556Z,14.10
2019-03-03T12:13:43.262Z,14.20
2019-03-03T12:16:28.122Z,14.40
2019-03-03T12:19:03.773Z,14.30
2019-03-03T12:21:59.301Z,14.20
2019-03-03T12:24:44.557Z,14.20
2019-03-03T12:27:24.800Z,14.20
2019-03-03T12:30:01.648Z,14.30
2019-03-03T12:32:49.359Z,14.20
2019-03-03T12:35:37.620Z,14.20
2019-03-03T12:38:24.749Z,14.10
2019-03-03T12:41:09.294Z,14.00
2019-03-03T12:43:51.179Z,14.20
2019-03-03T12:46:27.065Z,14.20
2019-03-03T12:49:11.290Z,14.30
2019-03-03T12:52:09.113Z,14.60
2019-03-03T12:54:59.796Z,14.50
2019-03-03T12:57:38.410Z,14.40
2019-03-03T13:00:31.838Z,14.80
2019-03-03T13:03:15.911Z,14.80
2019-03-03T13:06:02.715Z,14.60
2019-03-03T13:08:48.857Z,14.70
2019-03-03T13:11:43.629Z,14.80
2019-03-03T13:14:41.460Z,14.60
2019-03-03T13:17:27.673Z,14.60
2019-03-03T13:20:20.153Z,14.70
2019-03-03T13:23:02.674Z,14.60
2019-03-03T13:26:09.236Z,14.40
2019-03-03T13:28:56.305Z,14.30
2019-03-03T13:31:54.305Z,14.40
2019-03-03T13:34:35.666Z,14.50
2019-03-03T13:37:24.401Z,14.60
2019-03-03T13:40:15.337Z,14.60
2019-03-03T13:42:55.301Z,14.50
2019-03-03T13:45:26.382Z,14.50
2019-03-03T13:47:55.686Z,14.50
2019-03-03T13:50:25.077Z,14.40
2019-03-03T13:52:54.394Z,14.30
2019-03-03T13:55:23.530Z,14.40
2019-03-03T13:57:53.108Z,14.60
2019-03-03T14:00:22.584Z,14.70
2019-03-03T14:02:53.251Z,14.80
2019-03-03T14:05:24.269Z,15.00
2019-03-03T14:07:53.925Z,15.00
2019-03-03T14:10:23.706Z,14.70
2019-03-03T14:12:52.933Z,14.30
2019-03-03T14:15:23.522Z,14.30
2019-03-03T14:17:53.278Z,14.20
2019-03-03T14:20:23.207Z,14.20
2019-03-03T14:22:53.883Z,14.30
2019-03-03T14:25:24.139Z,14.30
2019-03-03T14:27:53.490Z,14.20
2019-03-03T14:30:24.125Z,13.90
2019-03-03T14:32:53.792Z,13.90
2019-03-03T14:35:23.550Z,14.00
2019-03-03T14:37:52.918Z,13.90
2019-03-03T14:40:22.822Z,13.90
2019-03-03T14:42:52.483Z,13.90
2019-03-03T14:45:21.628Z,14.00
2019-03-03T14:47:50.686Z,13.80
2019-03-03T14:50:20.374Z,13.90
2019-03-03T14:52:51.140Z,14.00
2019-03-03T14:55:20.639Z,13.90
2019-03-03T14:57:49.727Z,14.00
2019-03-03T15:00:27.927Z,14.00
2019-03-03T15:02:58.364Z,13.80
2019-03-03T15:05:27.879Z,13.80
2019-03-03T15:07:59.798Z,13.80
2019-03-03T15:10:32.939Z,13.90
2019-03-03T15:13:03.610Z,13.80
2019-03-03T15:15:34.172Z,13.90
2019-03-03T15:18:03.234Z,13.70
2019-03-03T15:20:32.851Z,13.60
2019-03-03T15:23:02.033Z,13.60
2019-03-03T15:25:32.538Z,13.60
2019-03-03T15:28:02.519Z,13.70
2019-03-03T15:30:32.101Z,13.70
2019-03-03T15:33:02.290Z,13.80
2019-03-03T15:35:31.682Z,13.80
2019-03-03T15:38:01.072Z,13.80
2019-03-03T15:40:30.666Z,13.70
2019-03-03T15:43:01.438Z,13.80
2019-03-03T15:45:30.750Z,13.80
2019-03-03T15:48:02.165Z,13.80
2019-03-03T15:50:42.757Z,13.80
2019-03-03T15:53:12.026Z,13.80
2019-03-03T15:55:42.073Z,13.80
2019-03-03T15:58:11.784Z,13.80
2019-03-03T16:00:43.067Z,13.70
2019-03-03T16:03:13.538Z,13.60
2019-03-03T16:05:43.135Z,13.70
2019-03-03T16:08:12.586Z,13.80
2019-03-03T16:10:42.071Z,13.70
2019-03-03T16:13:11.733Z,13.70
2019-03-03T16:15:40.913Z,13.70
2019-03-03T16:18:10.027Z,13.70
2019-03-03T16:20:41.303Z,13.60
2019-03-03T16:23:12.598Z,13.60
2019-03-03T16:25:42.321Z,13.40
2019-03-03T16:28:11.421Z,13.50
2019-03-03T16:30:40.574Z,13.60
2019-03-03T16:33:20.192Z,13.70
2019-03-03T16:35:42.077Z,13.60
2019-03-03T16:38:11.454Z,13.50
2019-03-03T16:40:40.463Z,13.40
2019-03-03T16:43:09.591Z,13.50
2019-03-03T16:45:39.203Z,13.30
2019-03-03T16:48:08.284Z,13.20
2019-03-03T16:50:38.013Z,13.20
2019-03-03T16:53:09.086Z,13.10
2019-03-03T16:55:38.615Z,13.10
2019-03-03T16:58:08.623Z,13.30
2019-03-03T17:00:37.837Z,13.30
2019-03-03T17:03:08.282Z,13.20
2019-03-03T17:05:38.112Z,13.10
2019-03-03T17:08:07.722Z,13.00
2019-03-03T17:10:37.583Z,13.00
2019-03-03T17:13:07.221Z,12.90
2019-03-03T17:15:36.841Z,13.10
2019-03-03T17:18:05.961Z,13.20
2019-03-03T17:20:37.762Z,13.10
2019-03-03T17:23:07.289Z,13.00
2019-03-03T17:25:36.369Z,13.00
2019-03-03T17:28:05.972Z,13.00
2019-03-03T17:30:36.141Z,13.00
2019-03-03T17:33:05.638Z,12.90
2019-03-03T17:35:35.780Z,13.00
2019-03-03T17:38:06.313Z,13.00
2019-03-03T17:40:35.906Z,13.00
2019-03-03T17:43:05.475Z,13.00
2019-03-03T17:45:35.814Z,13.00
2019-03-03T17:48:05.498Z,12.80
2019-03-03T17:50:35.194Z,12.80
2019-03-03T17:53:05.648Z,12.70
2019-03-03T17:55:35.498Z,12.80
2019-03-03T17:58:04.927Z,12.80
2019-03-03T18:00:36.005Z,12.80
2019-03-03T18:03:05.594Z,12.80
2019-03-03T18:05:35.147Z,12.80
2019-03-03T18:08:04.314Z,12.70
2019-03-03T18:10:34.269Z,12.60
2019-03-03T18:13:03.685Z,12.60
2019-03-03T18:15:33.712Z,12.60
2019-03-03T18:18:03.055Z,12.50
2019-03-03T18:20:32.622Z,12.40
2019-03-03T18:23:02.366Z,12.50
2019-03-03T18:25:31.582Z,12.60
2019-03-03T18:28:01.510Z,12.50
2019-03-03T18:30:30.697Z,12.50
2019-03-03T18:33:00.457Z,12.50
2019-03-03T18:35:29.980Z,12.50
2019-03-03T18:37:59.296Z,12.40
2019-03-03T18:40:28.847Z,12.40
2019-03-03T18:42:58.277Z,12.30
2019-03-03T18:45:27.890Z,12.30
2019-03-03T18:47:57.282Z,12.20
2019-03-03T18:50:26.836Z,12.20
2019-03-03T18:52:56.125Z,12.30
2019-03-03T18:55:25.456Z,12.20
2019-03-03T18:57:56.794Z,12.20
2019-03-03T19:00:26.210Z,12.20
2019-03-03T19:02:58.034Z,12.20
2019-03-03T19:05:38.156Z,12.10
2019-03-03T19:08:07.894Z,12.10
2019-03-03T19:10:37.082Z,12.10
2019-03-03T19:13:06.476Z,12.20
2019-03-03T19:15:35.923Z,12.20
2019-03-03T19:18:05.348Z,12.20
2019-03-03T19:20:35.090Z,12.20
2019-03-03T19:23:04.810Z,12.20
2019-03-03T19:25:35.501Z,12.10
2019-03-03T19:28:04.902Z,12.20
2019-03-03T19:30:34.518Z,12.10
2019-03-03T19:33:17.214Z,12.10
2019-03-03T19:35:47.066Z,12.00
2019-03-03T19:38:16.477Z,12.00
2019-03-03T19:40:45.658Z,12.00
2019-03-03T19:43:16.195Z,12.00
2019-03-03T19:45:45.334Z,12.00
2019-03-03T19:48:15.010Z,12.00
2019-03-03T19:50:45.092Z,12.10
2019-03-03T19:53:14.749Z,12.10
2019-03-03T19:55:44.439Z,12.10
2019-03-03T19:58:14.034Z,12.10
2019-03-03T20:00:43.698Z,12.10
2019-03-03T20:03:12.950Z,12.10
2019-03-03T20:05:42.353Z,12.10
2019-03-03T20:08:13.122Z,12.10
2019-03-03T20:10:42.702Z,12.00
2019-03-03T20:13:13.342Z,12.00
2019-03-03T20:15:42.913Z,11.90
2019-03-03T20:18:13.339Z,11.80
2019-03-03T20:20:42.706Z,11.80
2019-03-03T20:23:12.196Z,11.80
2019-03-03T20:25:41.261Z,11.70
2019-03-03T20:28:10.644Z,11.70
2019-03-03T20:30:40.653Z,11.70
2019-03-03T20:33:10.005Z,11.60
2019-03-03T20:35:39.091Z,11.60
2019-03-03T20:38:08.171Z,11.60
2019-03-03T20:40:39.203Z,11.60
2019-03-03T20:43:08.567Z,11.60
2019-03-03T20:45:37.647Z,11.70
2019-03-03T20:48:06.893Z,11.60
2019-03-03T20:50:36.674Z,11.60
2019-03-03T20:53:06.888Z,11.60
2019-03-03T20:55:36.456Z,11.60
2019-03-03T20:58:06.529Z,11.70
2019-03-03T21:00:35.750Z,11.70
2019-03-03T21:03:05.255Z,11.70
2019-03-03T21:05:35.337Z,11.80
2019-03-03T21:08:04.828Z,11.70
2019-03-03T21:10:33.976Z,11.70
2019-03-03T21:13:03.565Z,11.70
2019-03-03T21:15:32.722Z,11.80
2019-03-03T21:18:03.547Z,11.80
2019-03-03T21:20:33.460Z,11.80
2019-03-03T21:23:03.114Z,11.80
2019-03-03T21:25:32.441Z,11.70
2019-03-03T21:28:02.115Z,11.80
2019-03-03T21:30:33.231Z,11.80
2019-03-03T21:33:02.746Z,11.80
2019-03-03T21:35:33.126Z,11.80
2019-03-03T21:38:03.373Z,11.80
2019-03-03T21:40:32.748Z,11.80
2019-03-03T21:43:02.359Z,11.90
2019-03-03T21:45:31.674Z,11.80
2019-03-03T21:48:00.975Z,11.90
2019-03-03T21:50:30.242Z,11.90
2019-03-03T21:52:59.698Z,11.90
2019-03-03T21:55:30.309Z,11.90
2019-03-03T21:57:59.413Z,11.90
2019-03-03T22:00:34.608Z,11.90
2019-03-03T22:03:05.196Z,11.90
2019-03-03T22:05:35.204Z,11.80
2019-03-03T22:08:04.715Z,11.80
2019-03-03T22:10:35.179Z,11.80
2019-03-03T22:13:06.406Z,11.80
2019-03-03T22:15:35.607Z,11.70
2019-03-03T22:18:06.114Z,11.60
2019-03-03T22:20:35.500Z,11.60
2019-03-03T22:23:05.300Z,11.60
2019-03-03T22:25:34.967Z,11.70
2019-03-03T22:28:05.719Z,11.80
2019-03-03T22:30:35.213Z,11.80
2019-03-03T22:33:04.670Z,11.80
2019-03-03T22:35:34.999Z,11.70
2019-03-03T22:38:04.214Z,11.70
2019-03-03T22:40:33.834Z,11.60
2019-03-03T22:43:03.601Z,11.60
2019-03-03T22:45:32.751Z,11.50
2019-03-03T22:48:03.756Z,11.50
2019-03-03T22:50:33.195Z,11.50
2019-03-03T22:53:02.615Z,11.60
2019-03-03T22:55:36.914Z,11.70
2019-03-03T22:58:06.470Z,11.80
2019-03-03T23:00:49.412Z,11.60
2019-03-03T23:03:34.771Z,11.50
2019-03-03T23:06:27.966Z,11.40
2019-03-03T23:09:30.526Z,11.40
2019-03-03T23:12:23.034Z,11.30
2019-03-03T23:15:36.223Z,11.30
2019-03-03T23:18:27.222Z,11.30
2019-03-03T23:21:29.249Z,11.30
2019-03-03T23:24:28.279Z,11.30
2019-03-03T23:26:57.995Z,11.30
2019-03-03T23:29:27.466Z,11.40
2019-03-03T23:31:56.994Z,11.40
2019-03-03T23:34:26.407Z,11.40
2019-03-03T23:36:55.942Z,11.40
2019-03-03T23:39:25.778Z,11.30
2019-03-03T23:41:56.317Z,11.40
2019-03-03T23:44:26.199Z,11.40
2019-03-03T23:46:55.437Z,11.30
2019-03-03T23:49:25.055Z,11.40
2019-03-03T23:51:53.973Z,11.30
2019-03-03T23:54:22.980Z,11.30
2019-03-03T23:56:52.476Z,11.30
2019-03-03T23:59:22.062Z,11.30
